sensor_id;sensor_type;location;lat;lon;timestamp;P1;durP1;ratioP1;P2;durP2;ratioP2
2362;SDS011;1192;51.664;7.626;2022-09-09T00:00:13;903.30;;;818.22;;
2362;SDS011;1192;51.664;7.626;2022-09-09T00:02:42;893.92;;;809.08;;
2362;SDS011;1192;51.664;7.626;2022-09-09T00:05:17;891.20;;;806.47;;
2362;SDS011;1192;51.664;7.626;2022-09-09T00:07:52;902.53;;;817.25;;
2362;SDS011;1192;51.664;7.626;2022-09-09T00:10:21;903.58;;;818.33;;
2362;SDS011;1192;51.664;7.626;2022-09-09T00:12:54;888.38;;;803.60;;
2362;SDS011;1192;51.664;7.626;2022-09-09T00:15:29;886.45;;;801.78;;
2362;SDS011;1192;51.664;7.626;2022-09-09T00:18:01;903.78;;;818.58;;
2362;SDS011;1192;51.664;7.626;2022-09-09T00:20:40;888.40;;;803.60;;
2362;SDS011;1192;51.664;7.626;2022-09-09T00:23:14;895.00;;;810.00;;
2362;SDS011;1192;51.664;7.626;2022-09-09T00:25:53;890.70;;;805.75;;
2362;SDS011;1192;51.664;7.626;2022-09-09T00:28:24;879.47;;;794.90;;
2362;SDS011;1192;51.664;7.626;2022-09-09T00:30:56;893.25;;;808.25;;
2362;SDS011;1192;51.664;7.626;2022-09-09T00:33:27;897.92;;;812.85;;
2362;SDS011;1192;51.664;7.626;2022-09-09T00:35:57;882.42;;;797.75;;
2362;SDS011;1192;51.664;7.626;2022-09-09T00:38:28;886.97;;;802.28;;
2362;SDS011;1192;51.664;7.626;2022-09-09T00:41:00;896.15;;;811.17;;
2362;SDS011;1192;51.664;7.626;2022-09-09T00:43:35;893.60;;;808.60;;
2362;SDS011;1192;51.664;7.626;2022-09-09T00:46:13;904.42;;;819.03;;
2362;SDS011;1192;51.664;7.626;2022-09-09T00:49:08;896.42;;;811.25;;
2362;SDS011;1192;51.664;7.626;2022-09-09T00:51:45;901.60;;;816.38;;
2362;SDS011;1192;51.664;7.626;2022-09-09T00:54:24;893.42;;;808.53;;
2362;SDS011;1192;51.664;7.626;2022-09-09T00:57:18;884.58;;;799.80;;
2362;SDS011;1192;51.664;7.626;2022-09-09T00:59:56;887.63;;;802.83;;
2362;SDS011;1192;51.664;7.626;2022-09-09T01:02:32;868.13;;;784.13;;
2362;SDS011;1192;51.664;7.626;2022-09-09T01:05:12;872.67;;;788.22;;
2362;SDS011;1192;51.664;7.626;2022-09-09T01:07:47;883.20;;;798.55;;
2362;SDS011;1192;51.664;7.626;2022-09-09T01:10:17;890.08;;;805.28;;
2362;SDS011;1192;51.664;7.626;2022-09-09T01:12:52;879.03;;;794.47;;
2362;SDS011;1192;51.664;7.626;2022-09-09T01:15:22;886.53;;;801.78;;
2362;SDS011;1192;51.664;7.626;2022-09-09T01:17:56;882.00;;;797.33;;
2362;SDS011;1192;51.664;7.626;2022-09-09T01:20:28;866.10;;;781.92;;
2362;SDS011;1192;51.664;7.626;2022-09-09T01:23:04;863.15;;;779.03;;
2362;SDS011;1192;51.664;7.626;2022-09-09T01:26:02;884.75;;;799.70;;
2362;SDS011;1192;51.664;7.626;2022-09-09T01:28:41;889.63;;;804.63;;
2362;SDS011;1192;51.664;7.626;2022-09-09T01:31:11;890.10;;;805.15;;
2362;SDS011;1192;51.664;7.626;2022-09-09T01:33:43;888.40;;;803.63;;
2362;SDS011;1192;51.664;7.626;2022-09-09T01:36:11;890.03;;;805.30;;
2362;SDS011;1192;51.664;7.626;2022-09-09T01:38:41;873.95;;;789.78;;
2362;SDS011;1192;51.664;7.626;2022-09-09T01:41:09;888.95;;;804.03;;
2362;SDS011;1192;51.664;7.626;2022-09-09T01:43:36;882.90;;;798.20;;
2362;SDS011;1192;51.664;7.626;2022-09-09T01:46:04;886.10;;;801.40;;
2362;SDS011;1192;51.664;7.626;2022-09-09T01:48:31;870.45;;;786.03;;
2362;SDS011;1192;51.664;7.626;2022-09-09T01:50:59;870.70;;;786.47;;
2362;SDS011;1192;51.664;7.626;2022-09-09T01:53:25;864.60;;;780.30;;
2362;SDS011;1192;51.664;7.626;2022-09-09T01:55:55;900.38;;;814.95;;
2362;SDS011;1192;51.664;7.626;2022-09-09T01:58:34;880.88;;;796.20;;
2362;SDS011;1192;51.664;7.626;2022-09-09T02:01:12;885.75;;;800.78;;
2362;SDS011;1192;51.664;7.626;2022-09-09T02:03:51;873.22;;;788.85;;
2362;SDS011;1192;51.664;7.626;2022-09-09T02:06:23;870.40;;;785.72;;
2362;SDS011;1192;51.664;7.626;2022-09-09T02:08:55;884.10;;;799.33;;
2362;SDS011;1192;51.664;7.626;2022-09-09T02:11:25;866.92;;;782.67;;
2362;SDS011;1192;51.664;7.626;2022-09-09T02:13:56;891.63;;;806.60;;
2362;SDS011;1192;51.664;7.626;2022-09-09T02:16:27;863.65;;;779.17;;
2362;SDS011;1192;51.664;7.626;2022-09-09T02:19:00;860.38;;;776.30;;
2362;SDS011;1192;51.664;7.626;2022-09-09T02:21:32;867.28;;;782.72;;
2362;SDS011;1192;51.664;7.626;2022-09-09T02:24:02;864.33;;;780.10;;
2362;SDS011;1192;51.664;7.626;2022-09-09T02:26:33;897.63;;;812.13;;
2362;SDS011;1192;51.664;7.626;2022-09-09T02:29:04;876.83;;;792.15;;
2362;SDS011;1192;51.664;7.626;2022-09-09T02:31:34;886.22;;;800.97;;
2362;SDS011;1192;51.664;7.626;2022-09-09T02:34:03;856.78;;;772.72;;
2362;SDS011;1192;51.664;7.626;2022-09-09T02:36:32;870.28;;;785.83;;
2362;SDS011;1192;51.664;7.626;2022-09-09T02:39:01;870.50;;;785.90;;
2362;SDS011;1192;51.664;7.626;2022-09-09T02:41:31;862.75;;;778.63;;
2362;SDS011;1192;51.664;7.626;2022-09-09T02:44:00;868.03;;;783.53;;
2362;SDS011;1192;51.664;7.626;2022-09-09T02:46:32;862.65;;;778.60;;
2362;SDS011;1192;51.664;7.626;2022-09-09T02:49:09;862.95;;;778.65;;
2362;SDS011;1192;51.664;7.626;2022-09-09T02:51:39;877.10;;;792.05;;
2362;SDS011;1192;51.664;7.626;2022-09-09T02:54:14;860.47;;;776.30;;
2362;SDS011;1192;51.664;7.626;2022-09-09T02:56:47;860.40;;;776.22;;
2362;SDS011;1192;51.664;7.626;2022-09-09T02:59:19;845.05;;;761.22;;
2362;SDS011;1192;51.664;7.626;2022-09-09T03:01:48;859.30;;;775.10;;
2362;SDS011;1192;51.664;7.626;2022-09-09T03:04:15;862.28;;;778.08;;
2362;SDS011;1192;51.664;7.626;2022-09-09T03:06:42;861.42;;;777.33;;
2362;SDS011;1192;51.664;7.626;2022-09-09T03:09:09;868.15;;;783.83;;
2362;SDS011;1192;51.664;7.626;2022-09-09T03:11:36;860.58;;;776.58;;
2362;SDS011;1192;51.664;7.626;2022-09-09T03:14:03;872.55;;;788.17;;
2362;SDS011;1192;51.664;7.626;2022-09-09T03:16:31;861.83;;;777.42;;
2362;SDS011;1192;51.664;7.626;2022-09-09T03:19:00;864.55;;;780.35;;
2362;SDS011;1192;51.664;7.626;2022-09-09T03:21:27;869.67;;;785.10;;
2362;SDS011;1192;51.664;7.626;2022-09-09T03:23:54;867.55;;;783.28;;
2362;SDS011;1192;51.664;7.626;2022-09-09T03:26:22;858.60;;;774.50;;
2362;SDS011;1192;51.664;7.626;2022-09-09T03:28:49;862.95;;;778.47;;
2362;SDS011;1192;51.664;7.626;2022-09-09T03:31:19;874.25;;;789.78;;
2362;SDS011;1192;51.664;7.626;2022-09-09T03:33:46;874.17;;;789.35;;
2362;SDS011;1192;51.664;7.626;2022-09-09T03:36:14;865.22;;;780.78;;
2362;SDS011;1192;51.664;7.626;2022-09-09T03:38:41;869.50;;;785.13;;
2362;SDS011;1192;51.664;7.626;2022-09-09T03:41:08;870.15;;;785.75;;
2362;SDS011;1192;51.664;7.626;2022-09-09T03:43:34;870.42;;;786.05;;
2362;SDS011;1192;51.664;7.626;2022-09-09T03:46:02;841.40;;;757.90;;
2362;SDS011;1192;51.664;7.626;2022-09-09T03:48:29;862.83;;;778.53;;
2362;SDS011;1192;51.664;7.626;2022-09-09T03:50:56;855.60;;;771.72;;
2362;SDS011;1192;51.664;7.626;2022-09-09T03:53:27;876.53;;;791.90;;
2362;SDS011;1192;51.664;7.626;2022-09-09T03:55:55;862.17;;;777.72;;
2362;SDS011;1192;51.664;7.626;2022-09-09T03:58:25;839.70;;;755.97;;
2362;SDS011;1192;51.664;7.626;2022-09-09T04:00:53;856.33;;;772.22;;
2362;SDS011;1192;51.664;7.626;2022-09-09T04:03:21;859.65;;;775.45;;
2362;SDS011;1192;51.664;7.626;2022-09-09T04:05:49;855.03;;;771.13;;
2362;SDS011;1192;51.664;7.626;2022-09-09T04:08:16;851.65;;;767.67;;
2362;SDS011;1192;51.664;7.626;2022-09-09T04:10:45;850.05;;;765.97;;
2362;SDS011;1192;51.664;7.626;2022-09-09T04:13:12;842.90;;;759.20;;
2362;SDS011;1192;51.664;7.626;2022-09-09T04:15:42;846.83;;;763.03;;
2362;SDS011;1192;51.664;7.626;2022-09-09T04:18:10;854.33;;;770.25;;
2362;SDS011;1192;51.664;7.626;2022-09-09T04:20:37;848.67;;;765.05;;
2362;SDS011;1192;51.664;7.626;2022-09-09T04:23:04;861.53;;;777.33;;
2362;SDS011;1192;51.664;7.626;2022-09-09T04:25:31;839.78;;;756.08;;
2362;SDS011;1192;51.664;7.626;2022-09-09T04:28:00;853.08;;;769.20;;
2362;SDS011;1192;51.664;7.626;2022-09-09T04:30:27;837.97;;;754.55;;
2362;SDS011;1192;51.664;7.626;2022-09-09T04:32:54;872.20;;;787.78;;
2362;SDS011;1192;51.664;7.626;2022-09-09T04:35:21;854.47;;;770.40;;
2362;SDS011;1192;51.664;7.626;2022-09-09T04:37:48;842.90;;;759.25;;
2362;SDS011;1192;51.664;7.626;2022-09-09T04:40:14;848.45;;;764.42;;
2362;SDS011;1192;51.664;7.626;2022-09-09T04:42:41;829.22;;;745.85;;
2362;SDS011;1192;51.664;7.626;2022-09-09T04:45:10;843.22;;;759.63;;
2362;SDS011;1192;51.664;7.626;2022-09-09T04:47:38;868.88;;;784.33;;
2362;SDS011;1192;51.664;7.626;2022-09-09T04:50:06;838.58;;;754.92;;
2362;SDS011;1192;51.664;7.626;2022-09-09T04:52:33;852.40;;;768.35;;
2362;SDS011;1192;51.664;7.626;2022-09-09T04:55:01;859.78;;;775.60;;
2362;SDS011;1192;51.664;7.626;2022-09-09T04:57:27;829.00;;;745.50;;
2362;SDS011;1192;51.664;7.626;2022-09-09T04:59:56;859.78;;;775.72;;
2362;SDS011;1192;51.664;7.626;2022-09-09T05:02:26;835.40;;;752.00;;
2362;SDS011;1192;51.664;7.626;2022-09-09T05:04:53;846.05;;;762.45;;
2362;SDS011;1192;51.664;7.626;2022-09-09T05:07:20;849.42;;;765.55;;
2362;SDS011;1192;51.664;7.626;2022-09-09T05:09:46;852.40;;;768.40;;
2362;SDS011;1192;51.664;7.626;2022-09-09T05:12:14;844.85;;;761.35;;
2362;SDS011;1192;51.664;7.626;2022-09-09T05:14:42;838.35;;;754.97;;
2362;SDS011;1192;51.664;7.626;2022-09-09T05:17:09;850.38;;;766.45;;
2362;SDS011;1192;51.664;7.626;2022-09-09T05:19:37;827.00;;;743.85;;
2362;SDS011;1192;51.664;7.626;2022-09-09T05:22:04;851.28;;;767.28;;
2362;SDS011;1192;51.664;7.626;2022-09-09T05:24:30;839.15;;;755.42;;
2362;SDS011;1192;51.664;7.626;2022-09-09T05:26:58;854.58;;;770.55;;
2362;SDS011;1192;51.664;7.626;2022-09-09T05:29:27;855.45;;;771.25;;
2362;SDS011;1192;51.664;7.626;2022-09-09T05:31:54;855.50;;;771.30;;
2362;SDS011;1192;51.664;7.626;2022-09-09T05:34:20;828.20;;;744.75;;
2362;SDS011;1192;51.664;7.626;2022-09-09T05:36:48;848.95;;;765.08;;
2362;SDS011;1192;51.664;7.626;2022-09-09T05:39:16;852.05;;;768.05;;
2362;SDS011;1192;51.664;7.626;2022-09-09T05:41:42;838.63;;;755.08;;
2362;SDS011;1192;51.664;7.626;2022-09-09T05:44:09;846.75;;;762.95;;
2362;SDS011;1192;51.664;7.626;2022-09-09T05:46:36;857.55;;;773.47;;
2362;SDS011;1192;51.664;7.626;2022-09-09T05:49:03;831.88;;;748.45;;
2362;SDS011;1192;51.664;7.626;2022-09-09T05:51:31;849.28;;;765.17;;
2362;SDS011;1192;51.664;7.626;2022-09-09T05:53:59;837.45;;;753.92;;
2362;SDS011;1192;51.664;7.626;2022-09-09T05:56:26;834.05;;;750.70;;
2362;SDS011;1192;51.664;7.626;2022-09-09T05:58:55;851.58;;;767.65;;
2362;SDS011;1192;51.664;7.626;2022-09-09T06:01:22;851.05;;;767.03;;
2362;SDS011;1192;51.664;7.626;2022-09-09T06:03:51;851.47;;;767.55;;
2362;SDS011;1192;51.664;7.626;2022-09-09T06:06:19;851.10;;;767.15;;
2362;SDS011;1192;51.664;7.626;2022-09-09T06:08:48;833.80;;;750.33;;
2362;SDS011;1192;51.664;7.626;2022-09-09T06:11:18;844.17;;;760.40;;
2362;SDS011;1192;51.664;7.626;2022-09-09T06:13:47;848.60;;;764.70;;
2362;SDS011;1192;51.664;7.626;2022-09-09T06:16:17;841.55;;;757.97;;
2362;SDS011;1192;51.664;7.626;2022-09-09T06:18:45;830.33;;;746.97;;
2362;SDS011;1192;51.664;7.626;2022-09-09T06:21:14;827.15;;;743.88;;
2362;SDS011;1192;51.664;7.626;2022-09-09T06:23:43;836.30;;;752.80;;
2362;SDS011;1192;51.664;7.626;2022-09-09T06:26:11;847.72;;;763.97;;
2362;SDS011;1192;51.664;7.626;2022-09-09T06:28:40;836.47;;;753.17;;
2362;SDS011;1192;51.664;7.626;2022-09-09T06:31:08;847.53;;;763.85;;
2362;SDS011;1192;51.664;7.626;2022-09-09T06:33:37;842.55;;;758.85;;
2362;SDS011;1192;51.664;7.626;2022-09-09T06:36:06;823.28;;;740.45;;
2362;SDS011;1192;51.664;7.626;2022-09-09T06:38:36;828.95;;;745.88;;
2362;SDS011;1192;51.664;7.626;2022-09-09T06:41:03;832.80;;;749.45;;
2362;SDS011;1192;51.664;7.626;2022-09-09T06:43:30;820.83;;;737.92;;
2362;SDS011;1192;51.664;7.626;2022-09-09T06:46:00;840.03;;;756.67;;
2362;SDS011;1192;51.664;7.626;2022-09-09T06:48:28;832.53;;;749.38;;
2362;SDS011;1192;51.664;7.626;2022-09-09T06:51:02;834.83;;;751.72;;
2362;SDS011;1192;51.664;7.626;2022-09-09T06:53:31;843.67;;;760.33;;
2362;SDS011;1192;51.664;7.626;2022-09-09T06:55:59;821.05;;;737.80;;
2362;SDS011;1192;51.664;7.626;2022-09-09T06:58:27;842.88;;;759.60;;
2362;SDS011;1192;51.664;7.626;2022-09-09T07:01:02;824.25;;;741.30;;
2362;SDS011;1192;51.664;7.626;2022-09-09T07:03:29;830.22;;;746.88;;
2362;SDS011;1192;51.664;7.626;2022-09-09T07:05:57;830.28;;;746.83;;
2362;SDS011;1192;51.664;7.626;2022-09-09T07:08:24;838.88;;;755.53;;
2362;SDS011;1192;51.664;7.626;2022-09-09T07:10:51;854.38;;;770.60;;
2362;SDS011;1192;51.664;7.626;2022-09-09T07:13:19;833.63;;;750.42;;
2362;SDS011;1192;51.664;7.626;2022-09-09T07:15:49;836.55;;;753.28;;
2362;SDS011;1192;51.664;7.626;2022-09-09T07:18:18;848.42;;;765.00;;
2362;SDS011;1192;51.664;7.626;2022-09-09T07:20:52;844.08;;;760.80;;
2362;SDS011;1192;51.664;7.626;2022-09-09T07:23:19;833.45;;;750.15;;
2362;SDS011;1192;51.664;7.626;2022-09-09T07:25:47;847.03;;;763.33;;
2362;SDS011;1192;51.664;7.626;2022-09-09T07:28:14;852.47;;;768.90;;
2362;SDS011;1192;51.664;7.626;2022-09-09T07:30:40;835.15;;;751.75;;
2362;SDS011;1192;51.664;7.626;2022-09-09T07:33:07;850.72;;;766.83;;
2362;SDS011;1192;51.664;7.626;2022-09-09T07:35:36;853.35;;;769.55;;
2362;SDS011;1192;51.664;7.626;2022-09-09T07:38:03;858.00;;;774.08;;
2362;SDS011;1192;51.664;7.626;2022-09-09T07:40:31;848.28;;;764.50;;
2362;SDS011;1192;51.664;7.626;2022-09-09T07:42:58;851.92;;;768.47;;
2362;SDS011;1192;51.664;7.626;2022-09-09T07:45:25;861.33;;;777.28;;
2362;SDS011;1192;51.664;7.626;2022-09-09T07:47:54;860.42;;;776.33;;
2362;SDS011;1192;51.664;7.626;2022-09-09T07:50:21;865.63;;;781.60;;
2362;SDS011;1192;51.664;7.626;2022-09-09T07:52:50;860.85;;;776.85;;
2362;SDS011;1192;51.664;7.626;2022-09-09T07:55:16;849.83;;;766.08;;
2362;SDS011;1192;51.664;7.626;2022-09-09T07:57:44;856.35;;;772.50;;
2362;SDS011;1192;51.664;7.626;2022-09-09T08:00:11;857.10;;;773.28;;
2362;SDS011;1192;51.664;7.626;2022-09-09T08:02:40;850.40;;;766.60;;
2362;SDS011;1192;51.664;7.626;2022-09-09T08:05:07;860.88;;;776.92;;
2362;SDS011;1192;51.664;7.626;2022-09-09T08:07:33;874.03;;;789.38;;
2362;SDS011;1192;51.664;7.626;2022-09-09T08:10:02;872.72;;;788.25;;
2362;SDS011;1192;51.664;7.626;2022-09-09T08:12:29;882.58;;;797.67;;
2362;SDS011;1192;51.664;7.626;2022-09-09T08:14:56;900.55;;;815.38;;
2362;SDS011;1192;51.664;7.626;2022-09-09T08:17:23;910.40;;;824.75;;
2362;SDS011;1192;51.664;7.626;2022-09-09T08:19:50;919.25;;;833.40;;
2362;SDS011;1192;51.664;7.626;2022-09-09T08:22:16;930.50;;;844.25;;
2362;SDS011;1192;51.664;7.626;2022-09-09T08:24:44;924.17;;;838.05;;
2362;SDS011;1192;51.664;7.626;2022-09-09T08:27:13;960.67;;;873.60;;
2362;SDS011;1192;51.664;7.626;2022-09-09T08:29:40;950.00;;;863.50;;
2362;SDS011;1192;51.664;7.626;2022-09-09T08:32:06;951.63;;;864.95;;
2362;SDS011;1192;51.664;7.626;2022-09-09T08:34:33;939.42;;;853.33;;
2362;SDS011;1192;51.664;7.626;2022-09-09T08:37:00;950.60;;;864.17;;
2362;SDS011;1192;51.664;7.626;2022-09-09T08:39:27;961.47;;;874.65;;
2362;SDS011;1192;51.664;7.626;2022-09-09T08:44:50;957.72;;;871.05;;
2362;SDS011;1192;51.664;7.626;2022-09-09T08:47:31;943.58;;;857.50;;
2362;SDS011;1192;51.664;7.626;2022-09-09T08:50:07;959.53;;;873.17;;
2362;SDS011;1192;51.664;7.626;2022-09-09T08:52:44;940.80;;;855.00;;
2362;SDS011;1192;51.664;7.626;2022-09-09T08:55:20;955.35;;;868.88;;
2362;SDS011;1192;51.664;7.626;2022-09-09T08:57:55;958.33;;;871.92;;
2362;SDS011;1192;51.664;7.626;2022-09-09T09:00:27;973.10;;;886.20;;
2362;SDS011;1192;51.664;7.626;2022-09-09T09:03:01;955.70;;;869.17;;
2362;SDS011;1192;51.664;7.626;2022-09-09T09:05:36;966.72;;;880.05;;
2362;SDS011;1192;51.664;7.626;2022-09-09T09:08:11;970.00;;;883.25;;
2362;SDS011;1192;51.664;7.626;2022-09-09T09:10:45;960.05;;;873.55;;
2362;SDS011;1192;51.664;7.626;2022-09-09T09:13:17;954.33;;;867.53;;
2362;SDS011;1192;51.664;7.626;2022-09-09T09:15:47;949.47;;;863.20;;
2362;SDS011;1192;51.664;7.626;2022-09-09T09:18:18;952.42;;;866.10;;
2362;SDS011;1192;51.664;7.626;2022-09-09T09:20:48;954.65;;;868.15;;
2362;SDS011;1192;51.664;7.626;2022-09-09T09:23:21;952.05;;;865.38;;
2362;SDS011;1192;51.664;7.626;2022-09-09T09:25:49;950.25;;;863.90;;
2362;SDS011;1192;51.664;7.626;2022-09-09T09:28:22;946.22;;;859.97;;
2362;SDS011;1192;51.664;7.626;2022-09-09T09:30:52;922.58;;;836.97;;
2362;SDS011;1192;51.664;7.626;2022-09-09T09:33:23;926.50;;;840.72;;
2362;SDS011;1192;51.664;7.626;2022-09-09T09:35:54;940.42;;;854.38;;
2362;SDS011;1192;51.664;7.626;2022-09-09T09:38:21;931.85;;;846.13;;
2362;SDS011;1192;51.664;7.626;2022-09-09T09:40:50;928.05;;;842.13;;
2362;SDS011;1192;51.664;7.626;2022-09-09T09:43:20;939.92;;;853.33;;
2362;SDS011;1192;51.664;7.626;2022-09-09T09:45:50;928.40;;;842.60;;
2362;SDS011;1192;51.664;7.626;2022-09-09T09:48:18;945.97;;;859.90;;
2362;SDS011;1192;51.664;7.626;2022-09-09T09:50:48;946.65;;;860.03;;
2362;SDS011;1192;51.664;7.626;2022-09-09T09:53:19;954.13;;;867.65;;
2362;SDS011;1192;51.664;7.626;2022-09-09T09:55:50;943.15;;;856.90;;
2362;SDS011;1192;51.664;7.626;2022-09-09T09:58:21;939.35;;;853.17;;
2362;SDS011;1192;51.664;7.626;2022-09-09T10:00:50;949.25;;;862.85;;
2362;SDS011;1192;51.664;7.626;2022-09-09T10:03:20;961.78;;;875.03;;
2362;SDS011;1192;51.664;7.626;2022-09-09T10:05:49;957.25;;;870.75;;
2362;SDS011;1192;51.664;7.626;2022-09-09T10:08:17;947.33;;;860.88;;
2362;SDS011;1192;51.664;7.626;2022-09-09T10:10:56;943.85;;;857.45;;
2362;SDS011;1192;51.664;7.626;2022-09-09T10:13:32;948.35;;;861.97;;
2362;SDS011;1192;51.664;7.626;2022-09-09T10:18:58;936.33;;;850.15;;
2362;SDS011;1192;51.664;7.626;2022-09-09T10:21:32;932.95;;;847.10;;
2362;SDS011;1192;51.664;7.626;2022-09-09T10:24:28;929.05;;;843.53;;
2362;SDS011;1192;51.664;7.626;2022-09-09T10:27:11;905.90;;;820.90;;
2362;SDS011;1192;51.664;7.626;2022-09-09T10:29:56;923.13;;;837.47;;
2362;SDS011;1192;51.664;7.626;2022-09-09T10:32:40;929.63;;;843.55;;
2362;SDS011;1192;51.664;7.626;2022-09-09T10:38:03;924.75;;;839.25;;
2362;SDS011;1192;51.664;7.626;2022-09-09T10:40:39;928.10;;;842.42;;
2362;SDS011;1192;51.664;7.626;2022-09-09T10:43:20;920.00;;;834.35;;
2362;SDS011;1192;51.664;7.626;2022-09-09T10:45:58;924.50;;;839.20;;
2362;SDS011;1192;51.664;7.626;2022-09-09T10:48:36;940.90;;;855.10;;
2362;SDS011;1192;51.664;7.626;2022-09-09T10:51:18;930.28;;;844.60;;
2362;SDS011;1192;51.664;7.626;2022-09-09T10:53:52;946.95;;;860.95;;
2362;SDS011;1192;51.664;7.626;2022-09-09T10:56:30;929.25;;;843.65;;
2362;SDS011;1192;51.664;7.626;2022-09-09T10:58:59;926.28;;;840.90;;
2362;SDS011;1192;51.664;7.626;2022-09-09T11:01:33;927.67;;;842.25;;
2362;SDS011;1192;51.664;7.626;2022-09-09T11:04:10;947.78;;;861.78;;
2362;SDS011;1192;51.664;7.626;2022-09-09T11:06:46;942.55;;;856.75;;
2362;SDS011;1192;51.664;7.626;2022-09-09T11:09:18;945.22;;;859.35;;
2362;SDS011;1192;51.664;7.626;2022-09-09T11:11:50;934.63;;;849.00;;
2362;SDS011;1192;51.664;7.626;2022-09-09T11:14:22;945.03;;;858.85;;
2362;SDS011;1192;51.664;7.626;2022-09-09T11:16:53;961.15;;;874.78;;
2362;SDS011;1192;51.664;7.626;2022-09-09T11:19:26;923.38;;;837.97;;
2362;SDS011;1192;51.664;7.626;2022-09-09T11:21:59;951.08;;;864.92;;
2362;SDS011;1192;51.664;7.626;2022-09-09T11:24:30;956.53;;;869.95;;
2362;SDS011;1192;51.664;7.626;2022-09-09T11:27:02;947.00;;;860.70;;
2362;SDS011;1192;51.664;7.626;2022-09-09T11:29:53;940.42;;;854.70;;
2362;SDS011;1192;51.664;7.626;2022-09-09T11:35:40;930.03;;;844.47;;
2362;SDS011;1192;51.664;7.626;2022-09-09T11:38:21;947.22;;;861.15;;
2362;SDS011;1192;51.664;7.626;2022-09-09T11:40:55;947.30;;;861.40;;
2362;SDS011;1192;51.664;7.626;2022-09-09T11:43:27;927.53;;;841.88;;
2362;SDS011;1192;51.664;7.626;2022-09-09T11:45:57;948.20;;;861.88;;
2362;SDS011;1192;51.664;7.626;2022-09-09T11:48:29;961.75;;;875.17;;
2362;SDS011;1192;51.664;7.626;2022-09-09T11:51:03;941.05;;;855.30;;
2362;SDS011;1192;51.664;7.626;2022-09-09T11:53:32;950.58;;;864.38;;
2362;SDS011;1192;51.664;7.626;2022-09-09T11:56:04;949.63;;;863.38;;
2362;SDS011;1192;51.664;7.626;2022-09-09T11:58:35;945.85;;;859.90;;
2362;SDS011;1192;51.664;7.626;2022-09-09T12:03:55;947.15;;;860.85;;
2362;SDS011;1192;51.664;7.626;2022-09-09T12:06:33;954.33;;;868.25;;
2362;SDS011;1192;51.664;7.626;2022-09-09T12:09:13;939.53;;;853.83;;
2362;SDS011;1192;51.664;7.626;2022-09-09T12:11:45;942.38;;;856.53;;
2362;SDS011;1192;51.664;7.626;2022-09-09T12:14:19;944.20;;;858.55;;
2362;SDS011;1192;51.664;7.626;2022-09-09T12:16:47;945.55;;;859.75;;
2362;SDS011;1192;51.664;7.626;2022-09-09T12:19:16;936.80;;;851.13;;
2362;SDS011;1192;51.664;7.626;2022-09-09T12:21:48;959.95;;;873.35;;
2362;SDS011;1192;51.664;7.626;2022-09-09T12:24:20;952.92;;;866.75;;
2362;SDS011;1192;51.664;7.626;2022-09-09T12:26:57;958.95;;;872.75;;
2362;SDS011;1192;51.664;7.626;2022-09-09T12:29:32;967.58;;;880.88;;
2362;SDS011;1192;51.664;7.626;2022-09-09T12:32:07;946.95;;;861.22;;
2362;SDS011;1192;51.664;7.626;2022-09-09T12:34:38;958.72;;;872.70;;
2362;SDS011;1192;51.664;7.626;2022-09-09T12:39:54;934.85;;;849.22;;
2362;SDS011;1192;51.664;7.626;2022-09-09T12:42:22;956.53;;;870.28;;
2362;SDS011;1192;51.664;7.626;2022-09-09T12:44:50;957.72;;;871.45;;
2362;SDS011;1192;51.664;7.626;2022-09-09T12:47:22;938.45;;;852.95;;
2362;SDS011;1192;51.664;7.626;2022-09-09T12:49:53;955.58;;;869.72;;
2362;SDS011;1192;51.664;7.626;2022-09-09T12:52:23;961.20;;;874.42;;
2362;SDS011;1192;51.664;7.626;2022-09-09T12:54:56;950.22;;;864.15;;
2362;SDS011;1192;51.664;7.626;2022-09-09T12:57:24;968.92;;;882.47;;
2362;SDS011;1192;51.664;7.626;2022-09-09T13:00:03;949.22;;;863.47;;
2362;SDS011;1192;51.664;7.626;2022-09-09T13:02:33;941.20;;;855.13;;
2362;SDS011;1192;51.664;7.626;2022-09-09T13:05:06;953.45;;;867.35;;
2362;SDS011;1192;51.664;7.626;2022-09-09T13:07:41;951.55;;;865.72;;
2362;SDS011;1192;51.664;7.626;2022-09-09T13:10:10;938.28;;;852.75;;
2362;SDS011;1192;51.664;7.626;2022-09-09T13:12:38;945.28;;;859.40;;
2362;SDS011;1192;51.664;7.626;2022-09-09T13:15:09;946.47;;;860.83;;
2362;SDS011;1192;51.664;7.626;2022-09-09T13:17:42;944.30;;;858.40;;
2362;SDS011;1192;51.664;7.626;2022-09-09T13:20:15;936.42;;;850.70;;
2362;SDS011;1192;51.664;7.626;2022-09-09T13:22:44;943.65;;;857.72;;
2362;SDS011;1192;51.664;7.626;2022-09-09T13:25:18;948.88;;;863.00;;
2362;SDS011;1192;51.664;7.626;2022-09-09T13:27:55;938.40;;;853.17;;
2362;SDS011;1192;51.664;7.626;2022-09-09T13:30:24;956.22;;;869.85;;
2362;SDS011;1192;51.664;7.626;2022-09-09T13:33:06;950.00;;;864.10;;
2362;SDS011;1192;51.664;7.626;2022-09-09T13:35:48;945.15;;;859.47;;
2362;SDS011;1192;51.664;7.626;2022-09-09T13:38:18;919.38;;;834.42;;
2362;SDS011;1192;51.664;7.626;2022-09-09T13:40:57;931.33;;;846.35;;
2362;SDS011;1192;51.664;7.626;2022-09-09T13:43:27;953.47;;;867.70;;
2362;SDS011;1192;51.664;7.626;2022-09-09T13:45:56;944.10;;;858.22;;
2362;SDS011;1192;51.664;7.626;2022-09-09T13:48:24;948.40;;;862.80;;
2362;SDS011;1192;51.664;7.626;2022-09-09T13:50:56;946.08;;;860.40;;
2362;SDS011;1192;51.664;7.626;2022-09-09T13:53:25;940.85;;;855.17;;
2362;SDS011;1192;51.664;7.626;2022-09-09T13:55:52;942.00;;;856.75;;
2362;SDS011;1192;51.664;7.626;2022-09-09T13:58:19;938.92;;;853.58;;
2362;SDS011;1192;51.664;7.626;2022-09-09T14:00:47;952.30;;;866.63;;
2362;SDS011;1192;51.664;7.626;2022-09-09T14:03:15;957.58;;;871.72;;
2362;SDS011;1192;51.664;7.626;2022-09-09T14:05:43;949.75;;;863.88;;
2362;SDS011;1192;51.664;7.626;2022-09-09T14:08:11;939.13;;;853.70;;
2362;SDS011;1192;51.664;7.626;2022-09-09T14:10:51;949.72;;;864.10;;
2362;SDS011;1192;51.664;7.626;2022-09-09T14:13:23;949.42;;;863.63;;
2362;SDS011;1192;51.664;7.626;2022-09-09T14:15:50;951.47;;;865.85;;
2362;SDS011;1192;51.664;7.626;2022-09-09T14:18:17;953.13;;;867.38;;
2362;SDS011;1192;51.664;7.626;2022-09-09T14:20:44;949.97;;;863.97;;
2362;SDS011;1192;51.664;7.626;2022-09-09T14:23:11;952.88;;;866.92;;
2362;SDS011;1192;51.664;7.626;2022-09-09T14:25:41;943.58;;;857.72;;
2362;SDS011;1192;51.664;7.626;2022-09-09T14:28:10;929.67;;;844.35;;
2362;SDS011;1192;51.664;7.626;2022-09-09T14:30:38;942.47;;;856.90;;
2362;SDS011;1192;51.664;7.626;2022-09-09T14:33:06;917.95;;;833.20;;
2362;SDS011;1192;51.664;7.626;2022-09-09T14:35:33;960.40;;;874.13;;
2362;SDS011;1192;51.664;7.626;2022-09-09T14:38:01;934.38;;;848.85;;
2362;SDS011;1192;51.664;7.626;2022-09-09T14:40:28;945.00;;;859.20;;
2362;SDS011;1192;51.664;7.626;2022-09-09T14:42:55;946.50;;;860.97;;
2362;SDS011;1192;51.664;7.626;2022-09-09T14:45:25;950.17;;;864.35;;
2362;SDS011;1192;51.664;7.626;2022-09-09T14:47:52;945.03;;;859.33;;
2362;SDS011;1192;51.664;7.626;2022-09-09T14:50:19;934.75;;;849.25;;
2362;SDS011;1192;51.664;7.626;2022-09-09T14:52:46;949.03;;;863.13;;
2362;SDS011;1192;51.664;7.626;2022-09-09T14:55:14;943.47;;;858.13;;
2362;SDS011;1192;51.664;7.626;2022-09-09T14:57:41;935.13;;;850.00;;